createdAt,value
2018-07-13T00:01:30.542Z,23.76
2018-07-13T00:03:07.058Z,23.74
2018-07-13T00:04:44.790Z,23.69
2018-07-13T00:06:21.790Z,23.71
2018-07-13T00:08:00.818Z,23.65
2018-07-13T00:09:39.210Z,23.54
2018-07-13T00:11:16.743Z,23.39
2018-07-13T00:12:55.373Z,23.05
2018-07-13T00:14:32.632Z,22.87
2018-07-13T00:16:09.163Z,22.74
2018-07-13T00:17:45.633Z,22.62
2018-07-13T00:19:22.677Z,22.33
2018-07-13T00:20:59.958Z,22.12
2018-07-13T00:22:36.342Z,22.09
2018-07-13T00:24:14.053Z,22.08
2018-07-13T00:25:50.516Z,22.07
2018-07-13T00:27:26.926Z,21.98
2018-07-13T00:29:04.377Z,21.99
2018-07-13T00:30:41.064Z,21.97
2018-07-13T00:32:17.535Z,21.86
2018-07-13T00:33:55.618Z,21.86
2018-07-13T00:35:32.081Z,21.80
2018-07-13T00:37:09.163Z,21.74
2018-07-13T00:38:45.556Z,21.73
2018-07-13T00:40:23.520Z,21.55
2018-07-13T00:41:59.883Z,21.44
2018-07-13T00:43:38.403Z,21.40
2018-07-13T00:45:16.555Z,21.50
2018-07-13T00:46:53.443Z,21.59
2018-07-13T00:48:29.749Z,21.55
2018-07-13T00:50:06.061Z,21.49
2018-07-13T00:51:42.461Z,21.49
2018-07-13T00:53:18.732Z,21.56
2018-07-13T00:54:55.127Z,21.47
2018-07-13T00:56:31.458Z,21.49
2018-07-13T00:58:08.421Z,21.47
2018-07-13T00:59:44.803Z,21.49
2018-07-13T01:01:22.076Z,21.33
2018-07-13T01:02:59.078Z,21.29
2018-07-13T01:04:36.054Z,21.27
2018-07-13T01:06:12.455Z,21.34
2018-07-13T01:07:49.219Z,21.46
2018-07-13T01:09:26.941Z,21.49
2018-07-13T01:11:03.743Z,21.51
2018-07-13T01:12:40.205Z,21.61
2018-07-13T01:14:16.518Z,21.83
2018-07-13T01:15:52.912Z,21.91
2018-07-13T01:17:29.274Z,22.03
2018-07-13T01:19:07.138Z,21.97
2018-07-13T01:20:44.556Z,22.01
2018-07-13T01:22:20.937Z,21.93
2018-07-13T01:23:58.258Z,21.90
2018-07-13T01:25:34.611Z,21.76
2018-07-13T01:27:11.281Z,21.83
2018-07-13T01:28:49.734Z,21.92
2018-07-13T01:30:26.291Z,21.68
2018-07-13T01:32:02.681Z,21.54
2018-07-13T01:33:40.827Z,21.53
2018-07-13T01:35:17.129Z,21.48
2018-07-13T01:36:53.498Z,21.34
2018-07-13T01:38:29.796Z,21.18
2018-07-13T01:40:06.699Z,21.07
2018-07-13T01:41:43.056Z,21.20
2018-07-13T01:43:19.356Z,21.20
2018-07-13T01:44:55.738Z,21.07
2018-07-13T01:46:32.033Z,20.87
2018-07-13T01:48:08.291Z,20.88
2018-07-13T01:49:44.583Z,20.74
2018-07-13T01:51:20.880Z,20.78
2018-07-13T01:52:57.676Z,20.67
2018-07-13T01:54:34.064Z,20.64
2018-07-13T01:56:10.415Z,20.65
2018-07-13T01:57:46.772Z,20.64
2018-07-13T01:59:23.365Z,20.68
2018-07-13T02:00:59.664Z,20.68
2018-07-13T02:02:36.177Z,20.52
2018-07-13T02:04:12.507Z,20.43
2018-07-13T02:05:49.482Z,20.36
2018-07-13T02:07:25.839Z,20.30
2018-07-13T02:09:02.273Z,20.30
2018-07-13T02:10:39.656Z,20.22
2018-07-13T02:12:16.297Z,20.22
2018-07-13T02:13:52.686Z,20.20
2018-07-13T02:15:29.011Z,20.28
2018-07-13T02:17:05.475Z,20.33
2018-07-13T02:18:42.330Z,20.42
2018-07-13T02:20:18.756Z,20.34
2018-07-13T02:21:55.038Z,20.34
2018-07-13T02:23:31.385Z,20.38
2018-07-13T02:25:08.101Z,20.50
2018-07-13T02:26:44.448Z,20.58
2018-07-13T02:28:22.974Z,20.68
2018-07-13T02:29:59.316Z,20.57
2018-07-13T02:31:35.982Z,20.55
2018-07-13T02:33:12.286Z,20.49
2018-07-13T02:34:48.613Z,20.55
2018-07-13T02:36:24.911Z,20.53
2018-07-13T02:38:02.116Z,20.42
2018-07-13T02:39:38.820Z,20.49
2018-07-13T02:41:15.159Z,20.51
2018-07-13T02:42:51.583Z,20.52
2018-07-13T02:44:28.314Z,20.54
2018-07-13T02:46:04.718Z,20.49
2018-07-13T02:47:40.964Z,20.47
2018-07-13T02:49:17.331Z,20.52
2018-07-13T02:50:54.673Z,20.55
2018-07-13T02:52:31.004Z,20.46
2018-07-13T02:54:07.703Z,20.43
2018-07-13T02:55:44.045Z,20.33
2018-07-13T02:57:20.846Z,20.05
2018-07-13T02:58:57.147Z,20.03
2018-07-13T03:00:33.415Z,19.96
2018-07-13T03:02:09.745Z,19.95
2018-07-13T03:03:46.602Z,20.01
2018-07-13T03:05:23.037Z,20.04
2018-07-13T03:06:59.493Z,19.94
2018-07-13T03:08:35.923Z,20.16
2018-07-13T03:10:12.640Z,20.23
2018-07-13T03:11:48.944Z,20.30
2018-07-13T03:13:25.431Z,20.41
2018-07-13T03:15:04.271Z,20.47
2018-07-13T03:16:42.808Z,20.47
2018-07-13T03:18:22.360Z,20.38
2018-07-13T03:19:59.336Z,20.49
2018-07-13T03:21:37.689Z,20.50
2018-07-13T03:23:15.785Z,20.62
2018-07-13T03:24:52.524Z,20.70
2018-07-13T03:26:28.985Z,20.71
2018-07-13T03:28:09.249Z,20.57
2018-07-13T03:29:46.052Z,20.45
2018-07-13T03:31:22.415Z,20.32
2018-07-13T03:32:58.804Z,20.36
2018-07-13T03:34:35.205Z,20.37
2018-07-13T03:36:11.980Z,20.48
2018-07-13T03:37:48.337Z,20.57
2018-07-13T03:39:24.655Z,20.69
2018-07-13T03:41:00.953Z,20.86
2018-07-13T03:42:37.719Z,20.88
2018-07-13T03:44:13.981Z,20.97
2018-07-13T03:45:50.259Z,20.91
2018-07-13T03:47:26.635Z,21.01
2018-07-13T03:49:03.414Z,20.97
2018-07-13T03:50:39.790Z,21.03
2018-07-13T03:52:17.386Z,21.09
2018-07-13T03:53:53.752Z,21.13
2018-07-13T03:55:30.571Z,21.06
2018-07-13T03:57:06.980Z,20.97
2018-07-13T03:58:46.281Z,20.89
2018-07-13T04:00:22.704Z,21.00
2018-07-13T04:01:59.462Z,21.04
2018-07-13T04:03:35.845Z,21.01
2018-07-13T04:05:12.269Z,20.99
2018-07-13T04:06:49.248Z,21.10
2018-07-13T04:08:26.013Z,21.14
2018-07-13T04:10:02.274Z,21.15
2018-07-13T04:11:39.437Z,21.01
2018-07-13T04:13:15.881Z,20.93
2018-07-13T04:14:52.651Z,20.97
2018-07-13T04:16:29.014Z,21.13
2018-07-13T04:18:05.481Z,21.27
2018-07-13T04:19:41.745Z,21.41
2018-07-13T04:21:18.541Z,21.62
2018-07-13T04:22:54.926Z,21.81
2018-07-13T04:24:35.553Z,21.96
2018-07-13T04:26:12.957Z,22.03
2018-07-13T04:27:50.775Z,22.11
2018-07-13T04:29:29.390Z,22.30
2018-07-13T04:31:05.687Z,22.35
2018-07-13T04:32:48.305Z,22.38
2018-07-13T04:34:25.666Z,22.28
2018-07-13T04:36:05.041Z,22.30
2018-07-13T04:37:41.341Z,22.38
2018-07-13T04:39:18.289Z,22.54
2018-07-13T04:40:55.064Z,22.69
2018-07-13T04:42:34.489Z,22.93
2018-07-13T04:44:10.776Z,23.12
2018-07-13T04:45:50.222Z,23.28
2018-07-13T04:47:27.458Z,23.45
2018-07-13T04:49:03.959Z,23.45
2018-07-13T04:50:41.457Z,23.46
2018-07-13T04:52:18.899Z,23.57
2018-07-13T04:53:56.677Z,23.67
2018-07-13T04:55:33.138Z,23.84
2018-07-13T04:57:10.219Z,24.07
2018-07-13T04:58:46.694Z,24.22
2018-07-13T05:00:23.310Z,24.12
2018-07-13T05:01:59.786Z,23.93
2018-07-13T05:03:36.494Z,23.74
2018-07-13T05:05:14.449Z,23.54
2018-07-13T05:06:50.991Z,23.58
2018-07-13T05:08:30.158Z,23.56
2018-07-13T05:10:08.816Z,23.31
2018-07-13T05:11:45.649Z,23.04
2018-07-13T05:13:21.970Z,22.83
2018-07-13T05:14:58.218Z,22.89
2018-07-13T05:16:35.306Z,22.97
2018-07-13T05:18:12.102Z,23.07
2018-07-13T05:19:49.951Z,23.33
2018-07-13T05:21:26.506Z,23.40
2018-07-13T05:23:03.229Z,23.58
2018-07-13T05:24:44.308Z,23.81
2018-07-13T05:26:23.402Z,23.88
2018-07-13T05:28:01.634Z,24.03
2018-07-13T05:29:38.601Z,24.17
2018-07-13T05:31:15.532Z,24.24
2018-07-13T05:32:52.028Z,24.14
2018-07-13T05:34:29.175Z,24.08
2018-07-13T05:36:06.579Z,24.05
2018-07-13T05:37:45.785Z,23.85
2018-07-13T05:39:32.813Z,23.48
2018-07-13T05:41:10.165Z,23.46
2018-07-13T05:42:48.046Z,23.26
2018-07-13T05:44:26.229Z,22.95
2018-07-13T05:46:02.695Z,22.88
2018-07-13T05:47:39.216Z,22.69
2018-07-13T05:49:17.938Z,22.57
2018-07-13T05:50:54.757Z,22.69
2018-07-13T05:52:32.135Z,22.92
2018-07-13T05:54:08.682Z,23.03
2018-07-13T05:55:46.775Z,23.03
2018-07-13T05:57:24.678Z,23.13
2018-07-13T05:59:01.287Z,23.05
2018-07-13T06:00:44.524Z,23.05
2018-07-13T06:02:22.987Z,23.14
2018-07-13T06:04:01.632Z,23.32
2018-07-13T06:05:38.046Z,23.32
2018-07-13T06:07:17.032Z,23.44
2018-07-13T06:08:54.154Z,23.57
2018-07-13T06:10:32.598Z,23.51
2018-07-13T06:12:10.830Z,23.66
2018-07-13T06:13:53.083Z,23.43
2018-07-13T06:15:29.889Z,23.56
2018-07-13T06:17:06.932Z,23.58
2018-07-13T06:18:43.257Z,23.74
2018-07-13T06:20:26.804Z,24.11
2018-07-13T06:22:04.562Z,24.60
2018-07-13T06:23:42.555Z,24.82
2018-07-13T06:25:20.450Z,25.02
2018-07-13T06:26:58.414Z,25.21
2018-07-13T06:28:34.815Z,25.32
2018-07-13T06:30:12.866Z,25.46
2018-07-13T06:31:51.352Z,25.40
2018-07-13T06:35:08.928Z,24.76
2018-07-13T06:36:45.508Z,25.02
2018-07-13T06:38:22.223Z,25.27
2018-07-13T06:39:58.844Z,25.57
2018-07-13T06:41:35.530Z,25.74
2018-07-13T06:43:12.061Z,25.98
2018-07-13T06:44:48.549Z,26.13
2018-07-13T06:46:25.737Z,26.18
2018-07-13T06:48:03.463Z,26.34
2018-07-13T06:49:40.079Z,26.27
2018-07-13T06:51:19.460Z,26.27
2018-07-13T06:52:56.564Z,26.05
2018-07-13T06:54:33.062Z,25.81
2018-07-13T06:57:55.035Z,25.70
2018-07-13T06:59:32.160Z,25.73
2018-07-13T07:01:15.324Z,25.81
2018-07-13T07:02:57.651Z,25.87
2018-07-13T07:04:39.544Z,26.09
2018-07-13T07:06:21.769Z,26.31
2018-07-13T07:07:59.646Z,26.50
2018-07-13T07:09:36.710Z,26.15
2018-07-13T07:11:15.851Z,25.84
2018-07-13T07:14:05.456Z,25.39
2018-07-13T07:15:43.531Z,26.05
2018-07-13T07:17:20.375Z,26.60
2018-07-13T07:18:59.488Z,26.79
2018-07-13T07:20:35.874Z,27.06
2018-07-13T07:22:13.757Z,26.87
2018-07-13T07:23:50.492Z,26.64
2018-07-13T07:25:36.890Z,26.94
2018-07-13T07:27:13.202Z,27.18
2018-07-13T07:28:51.321Z,27.27
2018-07-13T07:30:27.964Z,27.43
2018-07-13T07:32:04.642Z,27.46
2018-07-13T07:33:41.878Z,27.56
2018-07-13T07:35:19.951Z,27.52
2018-07-13T07:36:56.265Z,27.55
2018-07-13T07:38:36.176Z,27.55
2018-07-13T07:40:12.545Z,27.74
2018-07-13T07:41:49.547Z,27.90
2018-07-13T07:43:27.981Z,28.07
2018-07-13T07:45:07.030Z,28.02
2018-07-13T07:46:44.347Z,27.77
2018-07-13T07:48:21.256Z,27.25
2018-07-13T07:49:59.040Z,27.16
2018-07-13T07:51:35.468Z,27.20
2018-07-13T07:53:12.435Z,27.31
2018-07-13T07:54:49.437Z,27.16
2018-07-13T07:56:25.956Z,27.27
2018-07-13T07:58:02.328Z,27.33
2018-07-13T07:59:38.635Z,27.41
2018-07-13T08:01:15.062Z,27.39
2018-07-13T08:02:51.382Z,27.37
2018-07-13T08:04:28.385Z,26.94
2018-07-13T08:06:08.074Z,26.77
2018-07-13T08:07:44.502Z,26.81
2018-07-13T08:09:24.160Z,27.12
2018-07-13T08:11:00.821Z,27.29
2018-07-13T08:12:48.938Z,27.54
2018-07-13T08:14:27.837Z,27.53
2018-07-13T08:17:39.602Z,27.69
2018-07-13T08:19:16.071Z,27.79
2018-07-13T08:20:55.442Z,27.87
2018-07-13T08:22:38.750Z,27.90
2018-07-13T08:24:21.826Z,27.87
2018-07-13T08:26:02.499Z,27.95
2018-07-13T08:27:48.191Z,27.97
2018-07-13T08:29:29.564Z,28.00
2018-07-13T08:31:06.686Z,28.01
2018-07-13T08:32:45.587Z,27.82
2018-07-13T08:34:21.926Z,27.34
2018-07-13T08:36:00.025Z,27.15
2018-07-13T08:37:48.661Z,27.27
2018-07-13T08:39:26.689Z,27.33
2018-07-13T08:41:05.843Z,27.30
2018-07-13T08:43:41.819Z,27.25
2018-07-13T08:47:07.933Z,27.12
2018-07-13T08:49:02.125Z,27.38
2018-07-13T08:50:43.289Z,27.61
2018-07-13T08:52:21.612Z,27.58
2018-07-13T08:54:02.221Z,27.35
2018-07-13T08:55:38.749Z,27.27
2018-07-13T08:57:20.517Z,27.19
2018-07-13T08:58:57.785Z,27.36
2018-07-13T09:00:35.599Z,27.53
2018-07-13T09:02:12.949Z,27.54
2018-07-13T09:03:50.216Z,27.65
2018-07-13T09:05:27.793Z,27.60
2018-07-13T09:07:10.509Z,27.35
2018-07-13T09:08:55.054Z,27.02
2018-07-13T09:10:33.308Z,26.98
2018-07-13T09:12:10.504Z,27.14
2018-07-13T09:13:48.279Z,27.46
2018-07-13T09:17:01.524Z,27.60
2018-07-13T09:18:39.512Z,27.41
2018-07-13T09:20:17.477Z,27.09
2018-07-13T09:21:54.637Z,27.10
2018-07-13T09:23:31.939Z,27.29
2018-07-13T09:25:10.162Z,27.50
2018-07-13T09:28:38.623Z,26.95
2018-07-13T09:30:18.902Z,27.52
2018-07-13T09:31:56.245Z,27.92
2018-07-13T09:33:36.566Z,27.58
2018-07-13T09:35:14.004Z,27.54
2018-07-13T09:36:50.546Z,27.60
2018-07-13T09:41:03.553Z,27.66
2018-07-13T09:42:41.488Z,27.89
2018-07-13T09:44:21.242Z,27.76
2018-07-13T09:46:00.565Z,27.74
2018-07-13T09:47:38.157Z,28.07
2018-07-13T09:49:15.733Z,28.31
2018-07-13T09:51:00.352Z,28.45
2018-07-13T09:52:38.493Z,28.24
2018-07-13T09:54:15.255Z,28.06
2018-07-13T09:56:26.067Z,28.08
2018-07-13T09:58:36.215Z,27.84
2018-07-13T10:00:15.748Z,27.64
2018-07-13T10:01:52.965Z,27.73
2018-07-13T10:03:31.368Z,27.77
2018-07-13T10:05:11.049Z,27.04
2018-07-13T10:06:51.210Z,27.08
2018-07-13T10:08:34.267Z,27.38
2018-07-13T10:10:11.613Z,27.43
2018-07-13T10:11:49.149Z,27.45
2018-07-13T10:13:28.885Z,27.53
2018-07-13T10:15:12.477Z,27.33
2018-07-13T10:16:49.527Z,27.11
2018-07-13T10:18:27.330Z,27.14
2018-07-13T10:20:08.175Z,27.36
2018-07-13T10:21:48.666Z,27.43
2018-07-13T10:23:28.789Z,27.65
2018-07-13T10:25:06.269Z,27.59
2018-07-13T10:26:42.968Z,27.54
2018-07-13T10:28:20.178Z,27.57
2018-07-13T10:29:58.318Z,27.41
2018-07-13T10:31:39.905Z,27.17
2018-07-13T10:33:18.537Z,27.23
2018-07-13T10:34:57.793Z,27.23
2018-07-13T10:36:46.484Z,27.32
2018-07-13T10:38:24.176Z,27.29
2018-07-13T10:40:04.843Z,27.37
2018-07-13T10:41:44.256Z,27.29
2018-07-13T10:43:24.428Z,27.07
2018-07-13T10:45:01.693Z,26.80
2018-07-13T10:46:43.237Z,27.06
2018-07-13T10:48:38.109Z,27.43
2018-07-13T10:50:17.842Z,27.61
2018-07-13T10:51:57.228Z,27.58
2018-07-13T10:53:41.531Z,27.66
2018-07-13T10:55:19.097Z,27.72
2018-07-13T10:56:58.568Z,27.74
2018-07-13T10:58:37.871Z,27.72
2018-07-13T11:00:19.634Z,27.61
2018-07-13T11:01:56.658Z,27.44
2018-07-13T11:03:33.281Z,27.34
2018-07-13T11:05:14.334Z,27.64
2018-07-13T11:06:54.063Z,27.48
2018-07-13T11:08:32.244Z,27.87
2018-07-13T11:10:08.646Z,27.99
2018-07-13T11:11:45.876Z,28.06
2018-07-13T11:16:19.506Z,28.35
2018-07-13T11:18:00.760Z,28.26
2018-07-13T11:19:36.817Z,28.33
2018-07-13T11:21:13.651Z,28.41
2018-07-13T11:22:50.252Z,28.35
2018-07-13T11:24:27.429Z,28.15
2018-07-13T11:26:04.903Z,28.47
2018-07-13T11:27:42.541Z,28.35
2018-07-13T11:29:19.577Z,28.16
2018-07-13T11:31:00.667Z,28.31
2018-07-13T11:32:45.784Z,28.56
2018-07-13T11:34:22.390Z,28.66
2018-07-13T11:36:07.590Z,28.68
2018-07-13T11:37:43.969Z,28.88
2018-07-13T11:39:23.607Z,28.96
2018-07-13T11:41:01.229Z,28.88
2018-07-13T11:42:41.378Z,28.62
2018-07-13T11:44:17.811Z,28.36
2018-07-13T11:45:55.746Z,28.29
2018-07-13T11:47:33.347Z,28.42
2018-07-13T11:49:09.625Z,28.52
2018-07-13T11:50:47.078Z,28.65
2018-07-13T11:52:24.483Z,28.66
2018-07-13T11:54:01.363Z,28.67
2018-07-13T11:55:39.964Z,28.81
2018-07-13T11:57:17.634Z,28.67
2018-07-13T11:58:55.346Z,28.49
2018-07-13T12:00:38.119Z,28.54
2018-07-13T12:02:17.984Z,28.63
2018-07-13T12:03:56.333Z,28.61
2018-07-13T12:05:34.432Z,28.55
2018-07-13T12:07:11.069Z,28.36
2018-07-13T12:08:48.384Z,28.24
2018-07-13T12:10:25.659Z,28.52
2018-07-13T12:12:02.088Z,28.53
2018-07-13T12:13:40.284Z,28.62
2018-07-13T12:15:18.203Z,28.74
2018-07-13T12:16:56.550Z,28.72
2018-07-13T12:18:33.096Z,28.68
2018-07-13T12:20:09.468Z,28.49
2018-07-13T12:21:47.716Z,28.26
2018-07-13T12:23:30.331Z,28.09
2018-07-13T12:25:37.818Z,27.98
2018-07-13T12:27:38.461Z,27.87
2018-07-13T12:29:19.380Z,27.99
2018-07-13T12:31:07.487Z,27.78
2018-07-13T12:33:59.275Z,27.55
2018-07-13T12:36:40.515Z,27.45
2018-07-13T12:42:38.863Z,28.56
2018-07-13T12:44:32.190Z,28.74
2018-07-13T12:46:20.139Z,28.83
2018-07-13T12:48:03.778Z,28.83
2018-07-13T12:51:28.681Z,28.95
2018-07-13T12:53:09.397Z,29.12
2018-07-13T12:54:52.306Z,29.01
2018-07-13T12:58:05.199Z,29.24
2018-07-13T12:59:45.687Z,29.14
2018-07-13T13:01:24.402Z,28.66
2018-07-13T13:03:01.624Z,28.47
2018-07-13T13:04:38.212Z,28.38
2018-07-13T13:06:17.282Z,28.53
2018-07-13T13:08:01.686Z,28.39
2018-07-13T13:09:40.927Z,28.30
2018-07-13T13:11:18.588Z,28.11
2018-07-13T13:13:01.129Z,28.03
2018-07-13T13:14:42.123Z,27.81
2018-07-13T13:16:20.418Z,27.48
2018-07-13T13:17:58.756Z,27.37
2018-07-13T13:19:38.715Z,27.72
2018-07-13T13:21:16.829Z,27.91
2018-07-13T13:23:06.504Z,28.31
2018-07-13T13:24:44.921Z,28.75
2018-07-13T13:26:39.187Z,28.79
2018-07-13T13:28:18.316Z,27.99
2018-07-13T13:30:00.176Z,27.57
2018-07-13T13:31:57.450Z,27.47
2018-07-13T13:33:35.934Z,27.47
2018-07-13T13:35:15.340Z,27.44
2018-07-13T13:36:53.445Z,27.45
2018-07-13T13:38:36.637Z,27.84
2018-07-13T13:40:13.003Z,28.33
2018-07-13T13:41:51.373Z,28.83
2018-07-13T13:43:29.484Z,29.05
2018-07-13T13:45:10.393Z,29.30
2018-07-13T13:46:51.539Z,29.23
2018-07-13T13:48:34.431Z,29.33
2018-07-13T13:50:12.246Z,29.57
2018-07-13T13:51:48.529Z,29.73
2018-07-13T13:53:26.250Z,29.74
2018-07-13T13:55:02.639Z,29.75
2018-07-13T13:56:40.962Z,29.91
2018-07-13T13:58:18.051Z,29.90
2018-07-13T13:59:59.230Z,29.67
2018-07-13T14:01:41.500Z,29.34
2018-07-13T14:03:18.316Z,29.63
2018-07-13T14:04:59.026Z,29.81
2018-07-13T14:06:37.351Z,29.95
2018-07-13T14:08:17.697Z,30.01
2018-07-13T14:09:55.347Z,30.02
2018-07-13T14:11:33.431Z,29.97
2018-07-13T14:13:15.531Z,29.62
2018-07-13T14:15:00.077Z,29.45
2018-07-13T14:16:43.661Z,29.42
2018-07-13T14:18:20.813Z,29.29
2018-07-13T14:19:59.473Z,29.22
2018-07-13T14:21:39.591Z,28.98
2018-07-13T14:23:20.894Z,28.72
2018-07-13T14:24:59.730Z,28.46
2018-07-13T14:26:38.774Z,28.36
2018-07-13T14:28:17.223Z,28.73
2018-07-13T14:29:56.187Z,28.91
2018-07-13T14:31:37.172Z,28.88
2018-07-13T14:33:16.091Z,29.34
2018-07-13T14:34:52.500Z,29.45
2018-07-13T14:36:30.877Z,29.52
2018-07-13T14:38:07.975Z,29.63
2018-07-13T14:39:46.429Z,29.58
2018-07-13T14:41:25.820Z,29.37
2018-07-13T14:43:02.478Z,29.16
2018-07-13T14:44:42.344Z,29.05
2018-07-13T14:46:18.698Z,29.10
2018-07-13T14:47:55.526Z,29.11
2018-07-13T14:49:33.503Z,29.32
2018-07-13T14:51:15.915Z,29.43
2018-07-13T14:52:56.582Z,28.97
2018-07-13T14:54:36.499Z,29.23
2018-07-13T14:56:13.380Z,29.30
2018-07-13T14:57:55.235Z,29.38
2018-07-13T14:59:33.626Z,29.36
2018-07-13T15:01:12.419Z,28.85
2018-07-13T15:02:52.938Z,28.67
2018-07-13T15:04:32.142Z,28.31
2018-07-13T15:06:21.817Z,28.18
2018-07-13T15:08:30.477Z,28.43
2018-07-13T15:10:08.744Z,28.83
2018-07-13T15:11:45.612Z,28.61
2018-07-13T15:13:28.487Z,28.52
2018-07-13T15:15:08.311Z,28.81
2018-07-13T15:16:50.595Z,29.26
2018-07-13T15:20:14.976Z,29.50
2018-07-13T15:21:54.780Z,29.80
2018-07-13T15:23:45.845Z,29.83
2018-07-13T15:25:23.420Z,29.31
2018-07-13T15:27:00.805Z,29.37
2018-07-13T15:28:37.333Z,29.57
2018-07-13T15:30:20.322Z,29.70
2018-07-13T15:31:57.451Z,29.70
2018-07-13T15:33:33.833Z,29.73
2018-07-13T15:35:10.762Z,29.69
2018-07-13T15:36:49.403Z,29.52
2018-07-13T15:38:29.886Z,29.11
2018-07-13T15:40:06.649Z,29.27
2018-07-13T15:41:45.994Z,29.31
2018-07-13T15:43:24.566Z,29.36
2018-07-13T15:45:01.204Z,29.32
2018-07-13T15:46:41.246Z,29.11
2018-07-13T15:48:18.869Z,28.98
2018-07-13T15:49:58.404Z,29.23
2018-07-13T15:51:39.587Z,29.53
2018-07-13T15:53:16.067Z,29.61
2018-07-13T15:54:59.165Z,29.74
2018-07-13T15:56:39.112Z,29.83
2018-07-13T15:58:15.489Z,29.88
2018-07-13T15:59:51.865Z,29.72
2018-07-13T16:01:28.813Z,29.88
2018-07-13T16:03:05.774Z,29.93
2018-07-13T16:04:42.655Z,29.68
2018-07-13T16:06:21.271Z,29.72
2018-07-13T16:07:59.114Z,29.70
2018-07-13T16:09:35.500Z,29.82
2018-07-13T16:11:12.443Z,29.86
2018-07-13T16:12:50.062Z,29.92
2018-07-13T16:14:33.063Z,29.93
2018-07-13T16:16:20.617Z,29.32
2018-07-13T16:18:00.552Z,29.05
2018-07-13T16:19:39.663Z,29.29
2018-07-13T16:21:18.364Z,29.51
2018-07-13T16:22:57.204Z,29.84
2018-07-13T16:24:34.447Z,30.03
2018-07-13T16:26:11.791Z,30.18
2018-07-13T16:27:48.863Z,30.29
2018-07-13T16:29:25.209Z,30.39
2018-07-13T16:31:02.549Z,30.43
2018-07-13T16:32:49.033Z,30.52
2018-07-13T16:34:26.825Z,30.60
2018-07-13T16:36:03.507Z,30.71
2018-07-13T16:37:40.691Z,30.67
2018-07-13T16:39:18.194Z,30.65
2018-07-13T16:40:55.447Z,30.43
2018-07-13T16:42:31.759Z,30.37
2018-07-13T16:44:09.897Z,30.12
2018-07-13T16:45:47.819Z,30.05
2018-07-13T16:47:24.275Z,30.03
2018-07-13T16:49:00.733Z,30.07
2018-07-13T16:50:37.387Z,29.88
2018-07-13T16:52:17.857Z,30.19
2018-07-13T16:53:57.167Z,30.09
2018-07-13T16:55:38.658Z,30.09
2018-07-13T16:57:23.324Z,30.03
2018-07-13T17:00:50.378Z,29.71
2018-07-13T17:02:32.929Z,29.60
2018-07-13T17:04:24.305Z,29.30
2018-07-13T17:06:44.052Z,29.00
2018-07-13T17:08:28.945Z,29.16
2018-07-13T17:10:12.860Z,29.26
2018-07-13T17:11:56.199Z,29.49
2018-07-13T17:13:32.562Z,29.72
2018-07-13T17:15:15.345Z,29.28
2018-07-13T17:16:54.467Z,29.11
2018-07-13T17:18:44.807Z,29.31
2018-07-13T17:20:26.553Z,29.61
2018-07-13T17:22:05.561Z,29.51
2018-07-13T17:23:42.791Z,29.25
2018-07-13T17:25:22.003Z,29.49
2018-07-13T17:27:06.938Z,29.42
2018-07-13T17:28:47.625Z,29.65
2018-07-13T17:30:27.325Z,29.68
2018-07-13T17:32:05.412Z,29.91
2018-07-13T17:33:43.067Z,30.03
2018-07-13T17:35:19.521Z,30.10
2018-07-13T17:37:01.644Z,30.26
2018-07-13T17:39:00.302Z,30.29
2018-07-13T17:40:38.275Z,30.27
2018-07-13T17:42:23.176Z,30.14
2018-07-13T17:44:06.025Z,29.92
2018-07-13T17:45:45.197Z,29.86
2018-07-13T17:47:36.660Z,29.93
2018-07-13T17:49:15.368Z,29.95
2018-07-13T17:50:51.789Z,29.75
2018-07-13T17:52:29.483Z,29.68
2018-07-13T17:54:09.239Z,29.73
2018-07-13T17:55:46.246Z,29.89
2018-07-13T17:57:22.675Z,29.93
2018-07-13T17:59:03.304Z,29.86
2018-07-13T18:00:43.530Z,29.62
2018-07-13T18:02:21.148Z,29.27
2018-07-13T18:03:59.416Z,29.34
2018-07-13T18:05:36.146Z,29.46
2018-07-13T18:07:14.506Z,29.56
2018-07-13T18:08:51.902Z,29.93
2018-07-13T18:10:55.771Z,30.16
2018-07-13T18:12:32.374Z,29.30
2018-07-13T18:14:10.510Z,29.26
2018-07-13T18:15:54.166Z,29.59
2018-07-13T18:17:31.351Z,29.61
2018-07-13T18:19:08.620Z,29.65
2018-07-13T18:20:48.510Z,29.88
2018-07-13T18:22:25.586Z,30.00
2018-07-13T18:24:02.675Z,30.10
2018-07-13T18:25:40.626Z,29.97
2018-07-13T18:27:17.794Z,29.92
2018-07-13T18:28:54.200Z,29.92
2018-07-13T18:30:31.462Z,29.69
2018-07-13T18:32:09.487Z,29.38
2018-07-13T18:33:47.547Z,29.27
2018-07-13T18:35:28.452Z,29.37
2018-07-13T18:37:05.470Z,29.49
2018-07-13T18:38:43.465Z,29.46
2018-07-13T18:40:22.484Z,29.50
2018-07-13T18:42:05.725Z,29.52
2018-07-13T18:43:43.259Z,29.61
2018-07-13T18:45:20.692Z,29.60
2018-07-13T18:47:02.723Z,29.54
2018-07-13T18:48:46.475Z,29.56
2018-07-13T18:50:22.827Z,29.55
2018-07-13T18:52:02.239Z,29.54
2018-07-13T18:53:41.887Z,29.54
2018-07-13T18:55:26.827Z,29.28
2018-07-13T18:57:06.105Z,29.19
2018-07-13T18:59:00.333Z,29.05
2018-07-13T19:00:46.274Z,28.99
2018-07-13T19:02:23.649Z,29.22
2018-07-13T19:04:04.419Z,29.28
2018-07-13T19:05:46.506Z,29.33
2018-07-13T19:07:26.292Z,29.26
2018-07-13T19:09:05.169Z,29.06
2018-07-13T19:10:46.518Z,29.12
2018-07-13T19:12:24.719Z,29.29
2018-07-13T19:14:02.688Z,29.18
2018-07-13T19:15:42.837Z,29.28
2018-07-13T19:17:35.712Z,29.30
2018-07-13T19:19:15.580Z,29.14
2018-07-13T19:20:59.482Z,28.98
2018-07-13T19:22:49.876Z,28.86
2018-07-13T19:24:26.571Z,28.85
2018-07-13T19:26:08.834Z,28.72
2018-07-13T19:28:05.700Z,28.79
2018-07-13T19:29:52.539Z,28.75
2018-07-13T19:31:40.744Z,28.82
2018-07-13T19:33:37.928Z,28.91
2018-07-13T19:35:33.668Z,28.94
2018-07-13T19:37:28.149Z,28.92
2018-07-13T19:39:08.408Z,28.75
2018-07-13T19:41:13.854Z,28.76
2018-07-13T19:43:04.615Z,28.89
2018-07-13T19:44:46.607Z,28.89
2018-07-13T19:46:51.752Z,29.07
2018-07-13T19:48:46.294Z,28.97
2018-07-13T19:50:26.284Z,28.99
2018-07-13T19:52:08.005Z,28.98
2018-07-13T19:53:52.098Z,29.03
2018-07-13T19:55:33.655Z,29.09
2018-07-13T19:57:19.964Z,29.08
2018-07-13T19:59:02.038Z,29.04
2018-07-13T20:00:50.243Z,29.00
2018-07-13T20:02:34.253Z,29.06
2018-07-13T20:04:18.573Z,29.02
2018-07-13T20:06:05.266Z,29.07
2018-07-13T20:09:58.508Z,29.03
2018-07-13T20:11:46.846Z,29.00
2018-07-13T20:13:33.231Z,29.07
2018-07-13T20:15:20.044Z,29.11
2018-07-13T20:17:12.281Z,29.14
2018-07-13T20:18:58.176Z,29.10
2018-07-13T20:21:00.172Z,29.09
2018-07-13T20:22:53.732Z,29.13
2018-07-13T20:24:48.554Z,28.97
2018-07-13T20:27:36.423Z,29.02
2018-07-13T20:29:26.011Z,28.99
2018-07-13T20:31:06.977Z,28.85
2018-07-13T20:32:46.837Z,28.78
2018-07-13T20:34:26.715Z,28.57
2018-07-13T20:36:09.520Z,28.51
2018-07-13T20:37:51.809Z,28.60
2018-07-13T20:39:35.014Z,28.59
2018-07-13T20:41:21.546Z,28.49
2018-07-13T20:43:02.171Z,28.52
2018-07-13T20:44:41.599Z,28.54
2018-07-13T20:46:25.339Z,28.58
2018-07-13T20:48:07.404Z,28.55
2018-07-13T20:49:51.235Z,28.58
2018-07-13T20:51:34.548Z,28.57
2018-07-13T20:53:17.507Z,28.61
2018-07-13T20:54:54.479Z,28.55
2018-07-13T20:56:33.298Z,28.51
2018-07-13T20:58:15.075Z,28.46
2018-07-13T20:59:52.195Z,28.35
2018-07-13T21:01:30.330Z,28.34
2018-07-13T21:03:07.759Z,28.36
2018-07-13T21:07:09.252Z,28.31
2018-07-13T21:08:48.537Z,28.30
2018-07-13T21:10:33.723Z,28.24
2018-07-13T21:12:52.291Z,28.14
2018-07-13T21:14:46.587Z,27.99
2018-07-13T21:18:43.214Z,27.64
2018-07-13T21:20:22.066Z,27.62
2018-07-13T21:22:05.792Z,27.55
2018-07-13T21:23:59.528Z,27.52
2018-07-13T21:25:42.249Z,27.28
2018-07-13T21:27:20.279Z,27.07
2018-07-13T21:29:02.007Z,27.05
2018-07-13T21:30:42.381Z,27.23
2018-07-13T21:32:20.403Z,27.36
2018-07-13T21:35:44.327Z,27.05
2018-07-13T21:37:22.133Z,26.86
2018-07-13T21:39:09.574Z,26.80
2018-07-13T21:41:06.485Z,26.49
2018-07-13T21:42:45.785Z,26.28
2018-07-13T21:44:30.071Z,26.17
2018-07-13T21:48:21.347Z,25.75
2018-07-13T21:50:01.316Z,25.47
2018-07-13T21:51:42.588Z,25.46
2018-07-13T21:53:22.399Z,25.46
2018-07-13T21:55:01.517Z,25.30
2018-07-13T21:56:40.412Z,25.25
2018-07-13T21:58:36.756Z,25.18
2018-07-13T22:00:24.484Z,25.05
2018-07-13T22:02:18.329Z,25.00
2018-07-13T22:03:58.931Z,24.93
2018-07-13T22:05:37.577Z,24.94
2018-07-13T22:07:17.227Z,24.94